createdAt,value
2023-02-07T00:02:19.828Z,29.02
2023-02-07T00:07:21.271Z,23.33
2023-02-07T00:12:22.838Z,18.42
2023-02-07T00:17:24.264Z,25.35
2023-02-07T00:22:25.745Z,31.25
2023-02-07T00:27:27.166Z,19.90
2023-02-07T00:32:34.788Z,22.05
2023-02-07T00:37:36.378Z,22.20
2023-02-07T00:42:38.960Z,29.60
2023-02-07T00:47:40.497Z,28.10
2023-02-07T00:52:41.965Z,24.88
2023-02-07T00:57:43.414Z,21.15
2023-02-07T01:02:44.874Z,19.38
2023-02-07T01:07:46.475Z,19.48
2023-02-07T01:12:47.955Z,18.88
2023-02-07T01:17:49.471Z,18.95
2023-02-07T01:22:52.201Z,20.73
2023-02-07T01:27:55.028Z,16.60
2023-02-07T01:32:57.607Z,21.00
2023-02-07T01:37:59.312Z,14.68
2023-02-07T01:43:00.776Z,18.23
2023-02-07T01:48:07.928Z,14.02
2023-02-07T01:53:12.497Z,16.55
2023-02-07T01:58:15.253Z,18.67
2023-02-07T02:03:16.908Z,19.83
2023-02-07T02:08:18.376Z,20.08
2023-02-07T02:14:06.939Z,17.90
2023-02-07T02:19:33.310Z,18.85
2023-02-07T02:25:13.806Z,17.70
2023-02-07T02:30:39.256Z,17.20
2023-02-07T02:36:00.245Z,15.30
2023-02-07T02:41:11.672Z,17.58
2023-02-07T02:46:22.448Z,12.40
2023-02-07T02:51:24.201Z,17.88
2023-02-07T02:56:41.426Z,19.88
2023-02-07T03:01:57.436Z,19.20
2023-02-07T03:07:32.253Z,18.77
2023-02-07T03:12:59.026Z,13.23
2023-02-07T03:18:08.197Z,14.20
2023-02-07T03:23:11.841Z,16.13
2023-02-07T03:28:15.748Z,17.65
2023-02-07T03:33:17.904Z,17.67
2023-02-07T03:38:19.994Z,16.10
2023-02-07T03:43:26.781Z,12.25
2023-02-07T03:48:28.361Z,18.70
2023-02-07T03:53:29.816Z,18.08
2023-02-07T03:58:31.247Z,21.10
2023-02-07T04:03:32.698Z,19.80
2023-02-07T04:08:34.374Z,13.27
2023-02-07T04:13:35.820Z,15.15
2023-02-07T04:18:37.443Z,11.43
2023-02-07T04:23:38.898Z,15.73
2023-02-07T04:28:40.325Z,16.70
2023-02-07T04:33:41.788Z,16.35
2023-02-07T04:38:43.283Z,15.95
2023-02-07T04:43:45.724Z,13.98
2023-02-07T04:48:48.437Z,12.63
2023-02-07T04:53:49.893Z,14.68
2023-02-07T04:58:51.339Z,13.80
2023-02-07T05:03:52.761Z,14.98
2023-02-07T05:08:54.203Z,15.85
2023-02-07T05:13:55.648Z,14.80
2023-02-07T05:18:57.095Z,16.52
2023-02-07T05:23:58.549Z,14.98
2023-02-07T05:28:59.982Z,17.23
2023-02-07T05:34:01.411Z,17.83
2023-02-07T05:39:04.445Z,17.15
2023-02-07T05:44:06.978Z,16.45
2023-02-07T05:49:08.442Z,9.05
2023-02-07T05:54:09.889Z,17.55
2023-02-07T05:59:11.359Z,14.75
2023-02-07T06:04:12.792Z,17.35
2023-02-07T06:09:14.281Z,18.23
2023-02-07T06:14:15.706Z,16.00
2023-02-07T06:19:17.182Z,25.50
2023-02-07T06:24:18.809Z,23.33
2023-02-07T06:29:20.380Z,19.17
2023-02-07T06:34:21.853Z,22.13
2023-02-07T06:39:23.468Z,21.65
2023-02-07T06:44:24.895Z,21.20
2023-02-07T06:49:26.342Z,19.05
2023-02-07T06:54:27.771Z,14.63
2023-02-07T06:59:29.233Z,17.35
2023-02-07T07:04:31.237Z,19.15
2023-02-07T07:09:32.699Z,16.73
2023-02-07T07:14:34.167Z,20.63
2023-02-07T07:19:35.609Z,18.58
2023-02-07T07:24:37.041Z,20.70
2023-02-07T07:29:38.805Z,19.48
2023-02-07T07:34:40.461Z,18.95
2023-02-07T07:39:41.948Z,24.00
2023-02-07T07:44:43.376Z,23.80
2023-02-07T07:49:45.135Z,23.60
2023-02-07T07:54:46.600Z,28.65
2023-02-07T07:59:48.077Z,24.30
2023-02-07T08:04:49.971Z,24.40
2023-02-07T08:09:51.510Z,28.05
2023-02-07T08:14:52.971Z,28.38
2023-02-07T08:19:54.399Z,37.28
2023-02-07T08:24:55.884Z,30.75
2023-02-07T08:29:57.333Z,27.65
2023-02-07T08:34:58.803Z,31.50
2023-02-07T08:40:00.428Z,26.20
2023-02-07T08:45:01.995Z,28.63
2023-02-07T08:50:05.267Z,26.13
2023-02-07T08:55:07.285Z,23.80
2023-02-07T09:00:09.698Z,34.90
2023-02-07T09:05:11.802Z,32.42
2023-02-07T09:10:13.287Z,29.40
2023-02-07T09:15:14.756Z,28.13
2023-02-07T09:20:16.194Z,35.85
2023-02-07T09:25:17.662Z,62.03
2023-02-07T09:30:19.253Z,34.28
2023-02-07T09:35:20.732Z,31.33
2023-02-07T09:40:22.988Z,29.60
2023-02-07T09:45:28.913Z,24.90
2023-02-07T09:50:34.773Z,30.88
2023-02-07T09:55:47.450Z,24.65
2023-02-07T10:01:00.728Z,24.35
2023-02-07T10:06:17.492Z,31.02
2023-02-07T10:11:37.664Z,34.92
2023-02-07T10:17:05.120Z,25.83
2023-02-07T10:22:22.287Z,22.63
2023-02-07T10:27:32.336Z,30.85
2023-02-07T10:32:37.431Z,20.77
2023-02-07T10:37:39.236Z,30.02
2023-02-07T10:42:42.481Z,26.42
2023-02-07T10:47:43.969Z,24.92
2023-02-07T10:52:52.350Z,33.58
2023-02-07T10:58:02.702Z,31.70
2023-02-07T11:03:20.610Z,36.03
2023-02-07T11:08:31.320Z,26.73
2023-02-07T11:13:47.552Z,26.27
2023-02-07T11:18:59.327Z,31.65
2023-02-07T11:24:13.506Z,31.27
2023-02-07T11:29:18.491Z,23.20
2023-02-07T11:34:41.389Z,30.73
2023-02-07T11:39:46.750Z,26.50
2023-02-07T11:44:50.235Z,25.98
2023-02-07T11:49:58.038Z,27.70
2023-02-07T11:55:02.873Z,32.88
2023-02-07T12:00:20.096Z,29.38
2023-02-07T12:05:30.135Z,31.10
2023-02-07T12:10:39.585Z,36.05
2023-02-07T12:15:53.386Z,31.00
2023-02-07T12:21:19.808Z,28.27
2023-02-07T12:26:33.744Z,26.55
2023-02-07T12:31:50.965Z,30.50
2023-02-07T12:36:58.874Z,30.67
2023-02-07T12:42:09.569Z,32.25
2023-02-07T12:47:42.826Z,28.55
2023-02-07T12:52:50.333Z,30.83
2023-02-07T12:58:13.861Z,30.13
2023-02-07T13:03:34.402Z,29.20
2023-02-07T13:08:53.769Z,30.40
2023-02-07T13:14:23.173Z,32.90
2023-02-07T13:19:39.538Z,28.88
2023-02-07T13:24:42.999Z,32.38
2023-02-07T13:29:48.261Z,30.90
2023-02-07T13:35:24.817Z,37.45
2023-02-07T13:40:50.614Z,33.97
2023-02-07T13:46:00.614Z,32.95
2023-02-07T13:51:28.768Z,36.40
2023-02-07T13:56:53.974Z,32.72
2023-02-07T14:01:59.311Z,25.85
2023-02-07T14:07:08.589Z,27.83
2023-02-07T14:12:23.768Z,36.97
2023-02-07T14:17:28.076Z,35.13
2023-02-07T14:22:38.262Z,30.17
2023-02-07T14:28:02.672Z,31.00
2023-02-07T14:33:20.930Z,30.38
2023-02-07T14:38:31.866Z,28.25
2023-02-07T14:43:47.971Z,29.70
2023-02-07T14:49:29.986Z,29.17
2023-02-07T14:54:40.557Z,31.92
2023-02-07T15:00:04.920Z,28.23
2023-02-07T15:05:28.428Z,30.48
2023-02-07T15:10:44.087Z,34.03
2023-02-07T15:16:01.449Z,33.47
2023-02-07T15:21:03.558Z,29.30
2023-02-07T15:26:08.093Z,29.48
2023-02-07T15:31:09.525Z,24.08
2023-02-07T15:36:30.018Z,37.35
2023-02-07T15:41:31.932Z,33.42
2023-02-07T15:46:56.056Z,31.27
2023-02-07T15:52:15.169Z,32.42
2023-02-07T15:57:28.952Z,37.35
2023-02-07T16:02:34.973Z,20.25
2023-02-07T16:07:37.342Z,16.58
2023-02-07T16:12:53.094Z,35.45
2023-02-07T16:17:55.057Z,19.33
2023-02-07T16:23:00.347Z,16.00
2023-02-07T16:28:07.453Z,38.55
2023-02-07T16:33:13.016Z,23.52
2023-02-07T16:38:14.538Z,23.30
2023-02-07T16:43:37.316Z,30.23
2023-02-07T16:48:38.802Z,38.25
2023-02-07T16:53:40.226Z,22.20
2023-02-07T16:58:42.361Z,26.35
2023-02-07T17:03:43.947Z,35.65
2023-02-07T17:08:46.265Z,18.90
2023-02-07T17:13:47.716Z,21.92
2023-02-07T17:18:49.342Z,33.90
2023-02-07T17:23:50.907Z,21.08
2023-02-07T17:28:53.508Z,41.30
2023-02-07T17:33:56.575Z,31.15
2023-02-07T17:38:58.947Z,26.25
2023-02-07T17:44:00.408Z,32.38
2023-02-07T17:49:02.242Z,34.85
2023-02-07T17:54:03.728Z,35.22
2023-02-07T17:59:07.509Z,23.48
2023-02-07T18:04:08.949Z,40.95
2023-02-07T18:09:18.526Z,23.10
2023-02-07T18:14:19.966Z,35.85
2023-02-07T18:19:21.426Z,30.50
2023-02-07T18:24:25.890Z,36.13
2023-02-07T18:29:27.385Z,33.40
2023-02-07T18:34:28.841Z,30.17
2023-02-07T18:39:30.329Z,20.13
2023-02-07T18:44:31.974Z,42.20
2023-02-07T18:49:34.613Z,40.25
2023-02-07T18:54:36.437Z,30.60
2023-02-07T18:59:38.687Z,47.13
2023-02-07T19:04:40.774Z,49.03
2023-02-07T19:09:42.646Z,27.05
2023-02-07T19:14:44.130Z,32.25
2023-02-07T19:19:45.792Z,53.88
2023-02-07T19:24:47.211Z,35.08
2023-02-07T19:29:48.675Z,28.58
2023-02-07T19:34:50.169Z,34.88
2023-02-07T19:39:53.287Z,42.67
2023-02-07T19:44:54.727Z,32.15
2023-02-07T19:49:56.210Z,39.65
2023-02-07T19:54:57.634Z,24.98
2023-02-07T19:59:59.210Z,50.55
2023-02-07T20:05:00.646Z,36.97
2023-02-07T20:10:02.114Z,39.45
2023-02-07T20:15:03.845Z,40.38
2023-02-07T20:20:05.824Z,28.48
2023-02-07T20:25:07.832Z,40.78
2023-02-07T20:30:09.616Z,29.27
2023-02-07T20:35:11.047Z,33.47
2023-02-07T20:40:12.502Z,41.95
2023-02-07T20:45:14.056Z,46.80
2023-02-07T20:50:15.506Z,32.08
2023-02-07T20:55:17.071Z,44.15
2023-02-07T21:00:18.612Z,42.60
2023-02-07T21:05:20.100Z,36.40
2023-02-07T21:10:21.606Z,49.65
2023-02-07T21:15:23.268Z,46.03
2023-02-07T21:20:24.691Z,35.53
2023-02-07T21:25:26.118Z,35.30
2023-02-07T21:30:27.565Z,34.40
2023-02-07T21:35:29.048Z,43.33
2023-02-07T21:40:30.499Z,35.78
2023-02-07T21:45:31.958Z,31.88
2023-02-07T21:50:33.818Z,35.13
2023-02-07T21:55:35.389Z,39.50
2023-02-07T22:00:36.851Z,40.42
2023-02-07T22:05:38.283Z,36.58
2023-02-07T22:10:44.762Z,33.67
2023-02-07T22:15:50.257Z,38.40
2023-02-07T22:20:52.021Z,39.15
2023-02-07T22:25:53.471Z,31.48
2023-02-07T22:30:55.063Z,51.63
2023-02-07T22:35:56.522Z,38.63
2023-02-07T22:41:03.218Z,53.97
2023-02-07T22:46:06.976Z,37.55
2023-02-07T22:51:32.963Z,35.53
2023-02-07T22:56:36.802Z,40.20
2023-02-07T23:01:40.153Z,50.08
2023-02-07T23:06:41.962Z,45.75
2023-02-07T23:11:43.411Z,49.40
2023-02-07T23:16:44.952Z,31.67
2023-02-07T23:21:46.478Z,38.70
2023-02-07T23:26:47.934Z,33.00
2023-02-07T23:31:49.504Z,40.67
2023-02-07T23:36:51.017Z,35.83
2023-02-07T23:41:52.608Z,37.78
2023-02-07T23:46:54.072Z,49.20
2023-02-07T23:51:55.505Z,36.83
2023-02-07T23:56:56.949Z,41.30
